createdAt,value
2018-04-14T00:02:01.494Z,14.20
2018-04-14T00:04:28.952Z,13.30
2018-04-14T00:06:56.426Z,17.10
2018-04-14T00:09:24.017Z,17.53
2018-04-14T00:11:52.752Z,17.87
2018-04-14T00:14:20.222Z,18.53
2018-04-14T00:16:47.912Z,19.03
2018-04-14T00:19:16.149Z,17.47
2018-04-14T00:21:43.622Z,17.40
2018-04-14T00:24:11.133Z,18.93
2018-04-14T00:26:38.606Z,18.60
2018-04-14T00:29:06.102Z,16.03
2018-04-14T00:31:34.601Z,17.33
2018-04-14T00:34:02.845Z,13.97
2018-04-14T00:36:31.036Z,15.97
2018-04-14T00:38:58.599Z,15.20
2018-04-14T00:41:26.885Z,14.90
2018-04-14T00:43:54.353Z,19.67
2018-04-14T00:46:23.154Z,16.23
2018-04-14T00:48:51.449Z,15.83
2018-04-14T00:51:18.867Z,17.17
2018-04-14T00:53:47.788Z,17.60
2018-04-14T00:56:15.260Z,15.87
2018-04-14T00:58:42.724Z,18.90
2018-04-14T01:01:10.200Z,17.70
2018-04-14T01:03:37.681Z,19.83
2018-04-14T01:06:05.960Z,19.37
2018-04-14T01:08:33.433Z,19.60
2018-04-14T01:11:01.666Z,21.33
2018-04-14T01:13:30.106Z,22.37
2018-04-14T01:15:58.335Z,19.63
2018-04-14T01:18:25.812Z,19.70
2018-04-14T01:20:53.965Z,24.20
2018-04-14T01:23:21.444Z,19.97
2018-04-14T01:25:48.898Z,20.27
2018-04-14T01:28:16.368Z,19.93
2018-04-14T01:30:43.829Z,18.60
2018-04-14T01:33:11.372Z,18.60
2018-04-14T01:35:38.832Z,20.30
2018-04-14T01:38:06.398Z,20.97
2018-04-14T01:40:33.850Z,21.47
2018-04-14T01:43:01.648Z,18.63
2018-04-14T01:45:30.440Z,18.57
2018-04-14T01:47:58.980Z,18.83
2018-04-14T01:50:26.852Z,16.00
2018-04-14T01:52:54.322Z,16.73
2018-04-14T01:55:22.408Z,19.37
2018-04-14T01:57:49.860Z,16.20
2018-04-14T02:00:17.671Z,17.93
2018-04-14T02:02:45.180Z,17.47
2018-04-14T02:05:13.156Z,17.43
2018-04-14T02:07:40.657Z,15.93
2018-04-14T02:10:08.140Z,18.60
2018-04-14T02:12:35.615Z,16.67
2018-04-14T02:15:03.292Z,20.53
2018-04-14T02:17:30.940Z,22.13
2018-04-14T02:19:58.797Z,18.10
2018-04-14T02:22:26.277Z,16.63
2018-04-14T02:24:54.617Z,20.97
2018-04-14T02:27:22.116Z,18.37
2018-04-14T02:29:49.573Z,18.07
2018-04-14T02:32:17.133Z,19.03
2018-04-14T02:34:44.593Z,19.87
2018-04-14T02:37:12.058Z,20.93
2018-04-14T02:39:40.288Z,18.10
2018-04-14T02:42:07.777Z,19.33
2018-04-14T02:44:36.054Z,16.87
2018-04-14T02:47:03.519Z,19.43
2018-04-14T02:49:30.984Z,16.87
2018-04-14T02:51:58.456Z,15.70
2018-04-14T02:54:26.991Z,19.47
2018-04-14T02:56:54.532Z,15.63
2018-04-14T02:59:21.992Z,14.60
2018-04-14T03:01:49.489Z,18.67
2018-04-14T03:04:17.867Z,16.70
2018-04-14T03:06:45.437Z,15.30
2018-04-14T03:09:13.774Z,15.47
2018-04-14T03:11:41.261Z,14.63
2018-04-14T03:14:09.544Z,14.27
2018-04-14T03:16:37.015Z,13.90
2018-04-14T03:19:04.477Z,15.70
2018-04-14T03:21:32.744Z,14.63
2018-04-14T03:24:00.205Z,13.40
2018-04-14T03:26:27.677Z,13.43
2018-04-14T03:28:55.926Z,13.43
2018-04-14T03:31:23.445Z,14.00
2018-04-14T03:33:50.949Z,13.73
2018-04-14T03:36:18.512Z,12.90
2018-04-14T03:38:45.980Z,13.87
2018-04-14T03:41:13.524Z,13.33
2018-04-14T03:43:40.992Z,13.67
2018-04-14T03:46:08.545Z,11.53
2018-04-14T03:48:36.101Z,11.13
2018-04-14T03:51:03.608Z,10.70
2018-04-14T03:53:31.064Z,10.00
2018-04-14T03:55:58.528Z,12.20
2018-04-14T03:58:26.032Z,10.37
2018-04-14T04:00:53.596Z,9.90
2018-04-14T04:03:21.057Z,9.37
2018-04-14T04:05:48.616Z,8.93
2018-04-14T04:08:16.177Z,11.40
2018-04-14T04:10:43.841Z,9.47
2018-04-14T04:13:11.397Z,8.30
2018-04-14T04:15:38.901Z,8.40
2018-04-14T04:18:06.321Z,8.63
2018-04-14T04:20:56.477Z,7.83
2018-04-14T04:23:35.716Z,21.50
2018-04-14T04:26:03.181Z,16.13
2018-04-14T04:28:30.629Z,9.83
2018-04-14T04:30:58.078Z,8.50
2018-04-14T04:33:25.834Z,7.63
2018-04-14T04:35:54.096Z,6.07
2018-04-14T04:38:21.616Z,6.93
2018-04-14T04:40:49.065Z,7.30
2018-04-14T04:43:16.641Z,6.67
2018-04-14T04:45:44.094Z,8.37
2018-04-14T04:48:12.065Z,6.80
2018-04-14T04:50:39.514Z,5.47
2018-04-14T04:53:07.017Z,5.80
2018-04-14T04:55:34.468Z,4.77
2018-04-14T04:58:03.159Z,4.93
2018-04-14T05:00:31.962Z,5.50
2018-04-14T05:02:59.424Z,4.80
2018-04-14T05:05:26.877Z,4.53
2018-04-14T05:07:54.388Z,4.17
2018-04-14T05:10:22.237Z,4.10
2018-04-14T05:12:49.712Z,4.20
2018-04-14T05:15:17.164Z,4.07
2018-04-14T05:17:44.625Z,4.90
2018-04-14T05:20:12.074Z,4.13
2018-04-14T05:22:39.537Z,4.27
2018-04-14T05:25:06.989Z,4.30
2018-04-14T05:27:34.457Z,3.57
2018-04-14T05:30:01.906Z,4.30
2018-04-14T05:32:29.369Z,6.83
2018-04-14T05:34:56.812Z,4.73
2018-04-14T05:37:24.274Z,4.60
2018-04-14T05:39:52.239Z,3.40
2018-04-14T05:42:19.764Z,3.67
2018-04-14T05:44:47.217Z,4.90
2018-04-14T05:47:15.453Z,4.40
2018-04-14T05:49:42.900Z,3.47
2018-04-14T05:52:10.741Z,5.73
2018-04-14T05:54:38.184Z,3.77
2018-04-14T05:57:05.692Z,3.47
2018-04-14T05:59:33.817Z,3.67
2018-04-14T06:02:01.296Z,3.30
2018-04-14T06:04:28.742Z,4.47
2018-04-14T06:06:56.242Z,3.40
2018-04-14T06:09:23.689Z,3.97
2018-04-14T06:11:51.465Z,4.50
2018-04-14T06:14:19.749Z,4.30
2018-04-14T06:16:47.312Z,3.53
2018-04-14T06:19:16.497Z,3.57
2018-04-14T06:21:44.069Z,3.10
2018-04-14T06:24:11.526Z,2.37
2018-04-14T06:26:38.993Z,6.77
2018-04-14T06:29:06.949Z,8.53
2018-04-14T06:31:34.920Z,3.20
2018-04-14T06:34:02.794Z,4.27
2018-04-14T06:36:30.244Z,19.87
2018-04-14T06:38:58.084Z,3.10
2018-04-14T06:41:26.226Z,3.90
2018-04-14T06:43:55.120Z,3.37
2018-04-14T06:46:23.603Z,4.17
2018-04-14T06:48:51.195Z,3.50
2018-04-14T06:51:18.681Z,2.87
2018-04-14T06:53:46.234Z,3.50
2018-04-14T06:56:15.481Z,9.33
2018-04-14T06:58:43.764Z,15.70
2018-04-14T07:01:11.209Z,2.80
2018-04-14T07:03:39.459Z,5.27
2018-04-14T07:06:06.908Z,3.90
2018-04-14T07:08:34.481Z,1.93
2018-04-14T07:11:02.441Z,3.70
2018-04-14T07:13:29.907Z,3.70
2018-04-14T07:15:58.617Z,3.40
2018-04-14T07:18:26.843Z,2.23
2018-04-14T07:20:54.299Z,3.97
2018-04-14T07:23:21.839Z,2.37
2018-04-14T07:25:49.276Z,1.70
2018-04-14T07:28:17.530Z,3.33
2018-04-14T07:30:44.980Z,2.30
2018-04-14T07:33:12.997Z,2.20
2018-04-14T07:35:40.468Z,2.43
2018-04-14T07:38:07.930Z,3.83
2018-04-14T07:40:35.386Z,2.13
2018-04-14T07:43:02.840Z,3.47
2018-04-14T07:45:30.296Z,2.53
2018-04-14T07:47:57.985Z,4.50
2018-04-14T07:50:25.457Z,2.80
2018-04-14T07:52:53.038Z,3.53
2018-04-14T07:55:22.020Z,1.53
2018-04-14T07:57:49.485Z,1.50
2018-04-14T08:00:17.865Z,2.63
